Germantown, New York
Current Conditions -  °F | °C
As of 4:53 AM on Saturday 20 Dec 2014 (Local Time) from KPOU Reporting Station
Overcast Overcast  
Wind Chill: -6°   Ceiling: 2400
Heat Index: -2°   Visibility: 10mi
Dew Point: -7°   Wind: 9mph
Humidity: 67%   Direction: 350°N
Pressure: 30.25"   Gusts: NA
Location:  42.13°N, 73.88°W
Report Text: KPOU 200953Z AUTO 35008KT 10SM OVC024 M02/M07 A3025 RMK AO2 SLP242 T10171072 TSNO
Loading
Personal Weather Stations






























Interactive Weather Map New forecast layout! Learn more

10-Day Weather Forecast

Advertisements
Track Severe Weather on mobile